Time;durP1;ratioP1;P1;durP2;ratioP2;P2;SDS_P1;SDS_P2;PMS_P1;PMS_P2;Temp;Humidity;BMP_temperature;BMP_pressure;BME280_temperature;BME280_humidity;BME280_pressure;Samples;Min_cycle;Max_cycle;Signal;HPM_P1;HPM_P2
2021/08/14 00:00:27;;;;;;;10.05;5.30;;;;;;;;;;4983289;28;20039;-70
2021/08/14 00:02:53;;;;;;;9.27;4.88;;;;;;;;;;4988365;28;20077;-70
2021/08/14 00:05:19;;;;;;;13.93;5.45;;;;;;;;;;4985657;28;20027;-70
2021/08/14 00:07:45;;;;;;;10.02;5.22;;;;;;;;;;4987231;28;20028;-70
2021/08/14 00:10:11;;;;;;;8.80;5.22;;;;;;;;;;4988127;28;20039;-71
2021/08/14 00:12:37;;;;;;;9.18;5.43;;;;;;;;;;4987884;28;20037;-70
2021/08/14 00:15:03;;;;;;;9.98;5.78;;;;;;;;;;4985290;28;20106;-70
2021/08/14 00:17:29;;;;;;;7.35;5.07;;;;;;;;;;4979769;28;20030;-70
2021/08/14 00:19:55;;;;;;;11.95;5.57;;;;;;;;;;4982755;28;20026;-70
2021/08/14 00:22:21;;;;;;;7.47;5.30;;;;;;;;;;4974631;28;20034;-70
2021/08/14 00:24:47;;;;;;;7.43;4.55;;;;;;;;;;4980817;28;20058;-70
2021/08/14 00:27:13;;;;;;;9.05;5.30;;;;;;;;;;4974542;28;20022;-70
2021/08/14 00:29:39;;;;;;;16.08;5.00;;;;;;;;;;4983417;28;20030;-70
2021/08/14 00:32:05;;;;;;;8.75;4.70;;;;;;;;;;4983616;28;20022;-70
2021/08/14 00:34:31;;;;;;;6.78;4.43;;;;;;;;;;4976099;28;20018;-71
2021/08/14 00:36:57;;;;;;;7.93;4.90;;;;;;;;;;4977197;28;20181;-70
2021/08/14 00:39:23;;;;;;;9.60;4.82;;;;;;;;;;4978339;28;20023;-70
2021/08/14 00:41:50;;;;;;;7.57;5.28;;;;;;;;;;4984608;28;20026;-70
2021/08/14 00:44:17;;;;;;;6.60;4.40;;;;;;;;;;4971150;28;20181;-70
2021/08/14 00:46:43;;;;;;;7.72;4.43;;;;;;;;;;4969607;28;20157;-71
2021/08/14 00:49:09;;;;;;;7.22;4.25;;;;;;;;;;4973443;28;20109;-70
2021/08/14 00:51:35;;;;;;;6.00;4.40;;;;;;;;;;4999740;28;20041;-70
2021/08/14 00:54:01;;;;;;;8.10;3.92;;;;;;;;;;4984724;28;20030;-70
2021/08/14 00:56:27;;;;;;;9.02;4.38;;;;;;;;;;4988072;28;20042;-70
2021/08/14 00:58:54;;;;;;;7.85;4.53;;;;;;;;;;4980913;28;20166;-70
2021/08/14 01:01:23;;;;;;;7.43;4.40;;;;;;;;;;4987468;28;20034;-70
2021/08/14 01:03:49;;;;;;;9.35;4.63;;;;;;;;;;4972233;28;20470;-70
2021/08/14 01:06:16;;;;;;;7.82;4.45;;;;;;;;;;4984326;28;20114;-70
2021/08/14 01:08:42;;;;;;;7.70;5.07;;;;;;;;;;4992561;28;20031;-70
2021/08/14 01:11:10;;;;;;;6.45;4.30;;;;;;;;;;4994450;28;20046;-70
2021/08/14 01:13:35;;;;;;;8.05;4.70;;;;;;;;;;4976210;28;20465;-70
2021/08/14 01:16:03;;;;;;;7.68;4.20;;;;;;;;;;4984650;28;20031;-70
2021/08/14 01:18:29;;;;;;;6.63;4.28;;;;;;;;;;4979525;28;20478;-70
2021/08/14 01:20:54;;;;;;;5.53;4.43;;;;;;;;;;4983417;28;20258;-70
2021/08/14 01:23:21;;;;;;;6.97;4.60;;;;;;;;;;4981047;28;20134;-71
2021/08/14 01:25:59;;;;;;;5.85;3.95;;;;;;;;;;4987573;28;20034;-69
2021/08/14 01:28:25;;;;;;;9.20;4.43;;;;;;;;;;4984488;28;20030;-70
2021/08/14 01:30:51;;;;;;;8.35;4.13;;;;;;;;;;4986641;28;20049;-70
2021/08/14 01:33:17;;;;;;;5.72;4.05;;;;;;;;;;4971324;28;20027;-71
2021/08/14 01:35:44;;;;;;;7.85;4.13;;;;;;;;;;4975738;28;20438;-70
2021/08/14 01:38:10;;;;;;;7.88;4.63;;;;;;;;;;4985953;28;20037;-70
2021/08/14 01:40:36;;;;;;;5.65;4.55;;;;;;;;;;4975890;28;20055;-70
2021/08/14 01:43:02;;;;;;;7.15;4.47;;;;;;;;;;4984848;28;20097;-70
2021/08/14 01:45:28;;;;;;;6.38;4.50;;;;;;;;;;4980088;28;20381;-70
2021/08/14 01:47:54;;;;;;;7.53;5.10;;;;;;;;;;4971797;28;20652;-70
2021/08/14 01:50:23;;;;;;;7.50;4.38;;;;;;;;;;4984047;28;20030;-70
2021/08/14 01:52:52;;;;;;;6.38;4.25;;;;;;;;;;4983221;28;20029;-70
2021/08/14 01:55:18;;;;;;;9.88;4.50;;;;;;;;;;4978650;28;20473;-70
2021/08/14 01:57:44;;;;;;;8.82;4.35;;;;;;;;;;4990073;28;20169;-70
2021/08/14 02:00:10;;;;;;;7.88;3.88;;;;;;;;;;4989267;28;20033;-71
2021/08/14 02:02:36;;;;;;;5.15;3.67;;;;;;;;;;4983884;28;20030;-71
2021/08/14 02:05:02;;;;;;;7.97;3.95;;;;;;;;;;4989177;28;20018;-71
2021/08/14 02:07:28;;;;;;;5.00;3.58;;;;;;;;;;4984114;28;20030;-71
2021/08/14 02:09:55;;;;;;;6.85;3.75;;;;;;;;;;4978422;28;20034;-70
2021/08/14 02:12:21;;;;;;;6.47;3.90;;;;;;;;;;4981722;28;20489;-71
2021/08/14 02:14:47;;;;;;;8.85;3.80;;;;;;;;;;4981587;28;20030;-71
2021/08/14 02:17:13;;;;;;;9.38;3.95;;;;;;;;;;4986922;28;20026;-70
2021/08/14 02:19:39;;;;;;;6.43;3.65;;;;;;;;;;4987003;28;20053;-71
2021/08/14 02:22:05;;;;;;;7.40;4.55;;;;;;;;;;4982937;28;20038;-70
2021/08/14 02:24:31;;;;;;;7.07;3.90;;;;;;;;;;4985111;28;20042;-70
2021/08/14 02:26:57;;;;;;;5.55;3.50;;;;;;;;;;4989758;28;20023;-70
2021/08/14 02:29:23;;;;;;;10.95;4.00;;;;;;;;;;4987909;28;20077;-71
2021/08/14 02:31:49;;;;;;;10.38;4.35;;;;;;;;;;4982757;28;20055;-70
2021/08/14 02:34:15;;;;;;;8.55;4.10;;;;;;;;;;4984891;28;20500;-71
2021/08/14 02:36:41;;;;;;;10.48;4.97;;;;;;;;;;4979723;28;20030;-71
2021/08/14 02:39:06;;;;;;;8.63;4.72;;;;;;;;;;4978040;28;20383;-71
2021/08/14 02:41:32;;;;;;;9.18;4.72;;;;;;;;;;4981494;28;20023;-70
2021/08/14 02:43:58;;;;;;;8.07;4.50;;;;;;;;;;4980864;28;20573;-70
2021/08/14 02:46:24;;;;;;;11.75;4.93;;;;;;;;;;4980261;28;20385;-71
2021/08/14 02:48:50;;;;;;;7.20;4.60;;;;;;;;;;4987171;28;20026;-71
2021/08/14 02:51:16;;;;;;;12.82;4.45;;;;;;;;;;4979002;28;20049;-71
2021/08/14 02:53:42;;;;;;;7.65;4.07;;;;;;;;;;4980052;28;20635;-70
2021/08/14 02:56:09;;;;;;;11.00;4.25;;;;;;;;;;4987500;28;20138;-71
2021/08/14 02:58:34;;;;;;;8.25;4.18;;;;;;;;;;4983215;28;20060;-71
2021/08/14 03:01:00;;;;;;;7.88;4.05;;;;;;;;;;4987280;28;20037;-70
2021/08/14 03:03:26;;;;;;;5.78;3.53;;;;;;;;;;4985185;28;20027;-71
2021/08/14 03:05:52;;;;;;;6.47;3.80;;;;;;;;;;4982147;28;20031;-71
2021/08/14 03:08:18;;;;;;;8.18;4.03;;;;;;;;;;4984307;28;20030;-71
2021/08/14 03:10:44;;;;;;;7.63;4.88;;;;;;;;;;4988569;28;20128;-71
2021/08/14 03:13:11;;;;;;;8.30;3.60;;;;;;;;;;4982372;28;20548;-71
2021/08/14 03:15:37;;;;;;;8.45;3.67;;;;;;;;;;4985612;28;20041;-71
2021/08/14 03:18:04;;;;;;;9.77;3.60;;;;;;;;;;4986013;28;20108;-71
2021/08/14 03:20:29;;;;;;;6.88;4.10;;;;;;;;;;4988636;28;20563;-71
2021/08/14 03:22:55;;;;;;;8.15;3.53;;;;;;;;;;4981144;28;20058;-70
2021/08/14 03:25:22;;;;;;;8.13;3.20;;;;;;;;;;4989216;28;20035;-70
2021/08/14 03:27:48;;;;;;;6.68;3.67;;;;;;;;;;4983586;28;20039;-71
2021/08/14 03:30:14;;;;;;;4.32;2.88;;;;;;;;;;4986143;28;20045;-71
2021/08/14 03:32:41;;;;;;;11.45;3.90;;;;;;;;;;4988101;28;20066;-71
2021/08/14 03:35:07;;;;;;;6.07;3.50;;;;;;;;;;4975173;28;20491;-70
2021/08/14 03:37:33;;;;;;;10.40;3.70;;;;;;;;;;4982135;28;20037;-71
2021/08/14 03:39:59;;;;;;;12.98;4.00;;;;;;;;;;4988033;28;20034;-71
2021/08/14 03:42:24;;;;;;;8.88;3.35;;;;;;;;;;4987574;28;20034;-71
2021/08/14 03:44:50;;;;;;;8.70;3.33;;;;;;;;;;4988986;28;20056;-70
2021/08/14 03:47:16;;;;;;;10.48;3.40;;;;;;;;;;4985208;28;20377;-70
2021/08/14 03:49:42;;;;;;;7.10;3.17;;;;;;;;;;4986272;28;20018;-71
2021/08/14 03:52:08;;;;;;;13.15;4.00;;;;;;;;;;4992761;28;20026;-70
2021/08/14 03:54:34;;;;;;;17.73;3.75;;;;;;;;;;4984329;28;20220;-70
2021/08/14 03:57:00;;;;;;;13.90;3.65;;;;;;;;;;4983015;28;20042;-71
2021/08/14 03:59:26;;;;;;;8.13;3.28;;;;;;;;;;4993482;28;20027;-71
2021/08/14 04:01:52;;;;;;;9.32;3.58;;;;;;;;;;4982519;28;20026;-71
2021/08/14 04:04:18;;;;;;;13.23;3.72;;;;;;;;;;4987699;28;20030;-70
2021/08/14 04:06:44;;;;;;;6.78;3.13;;;;;;;;;;4983965;28;20018;-71
2021/08/14 04:09:10;;;;;;;8.15;3.22;;;;;;;;;;4988093;28;20603;-71
2021/08/14 04:11:36;;;;;;;9.25;3.47;;;;;;;;;;4988334;28;20026;-71
2021/08/14 04:14:02;;;;;;;12.38;3.97;;;;;;;;;;4987382;28;20027;-71
2021/08/14 04:16:27;;;;;;;6.40;3.15;;;;;;;;;;4984611;28;20644;-70
2021/08/14 04:18:53;;;;;;;8.23;3.50;;;;;;;;;;4978826;28;20724;-71
2021/08/14 04:21:19;;;;;;;8.40;3.15;;;;;;;;;;4983283;28;20376;-70
2021/08/14 04:23:45;;;;;;;8.25;3.20;;;;;;;;;;4975039;28;20449;-71
2021/08/14 04:26:11;;;;;;;8.95;3.45;;;;;;;;;;4986556;28;20022;-71
2021/08/14 04:28:37;;;;;;;8.50;4.13;;;;;;;;;;4984895;28;20027;-70
2021/08/14 04:31:03;;;;;;;10.25;3.03;;;;;;;;;;4984097;28;20038;-71
2021/08/14 04:33:29;;;;;;;8.80;3.53;;;;;;;;;;4982181;28;20042;-71
2021/08/14 04:35:55;;;;;;;7.15;2.80;;;;;;;;;;4984048;28;20050;-70
2021/08/14 04:38:20;;;;;;;8.63;3.35;;;;;;;;;;4981882;28;20046;-70
2021/08/14 04:40:46;;;;;;;8.60;3.65;;;;;;;;;;4976279;28;20582;-71
2021/08/14 04:43:12;;;;;;;9.85;3.38;;;;;;;;;;4977683;28;20039;-71
2021/08/14 04:45:38;;;;;;;11.82;3.63;;;;;;;;;;4981810;28;20110;-71
2021/08/14 04:48:04;;;;;;;10.43;2.83;;;;;;;;;;4976125;28;20033;-71
2021/08/14 04:50:30;;;;;;;8.40;3.00;;;;;;;;;;4982583;28;20022;-71
2021/08/14 04:52:56;;;;;;;10.73;3.15;;;;;;;;;;4987662;28;20442;-71
2021/08/14 04:55:23;;;;;;;8.68;3.15;;;;;;;;;;4981756;28;20401;-70
2021/08/14 04:57:49;;;;;;;6.50;2.90;;;;;;;;;;4984573;28;20106;-70
2021/08/14 05:00:15;;;;;;;10.02;3.00;;;;;;;;;;4984226;28;20054;-70
2021/08/14 05:02:41;;;;;;;10.80;3.45;;;;;;;;;;4981827;28;20084;-70
2021/08/14 05:05:07;;;;;;;9.48;3.03;;;;;;;;;;4983342;28;20032;-70
2021/08/14 05:07:34;;;;;;;9.75;3.60;;;;;;;;;;4983684;28;20019;-70
2021/08/14 05:10:00;;;;;;;13.07;4.07;;;;;;;;;;4980732;28;20077;-70
2021/08/14 05:12:26;;;;;;;13.38;3.83;;;;;;;;;;4969532;28;20051;-71
2021/08/14 05:14:52;;;;;;;10.80;3.50;;;;;;;;;;4982742;28;20027;-70
2021/08/14 05:17:18;;;;;;;6.50;3.03;;;;;;;;;;4982716;28;20046;-71
2021/08/14 05:19:44;;;;;;;9.85;3.78;;;;;;;;;;4986185;28;20031;-70
2021/08/14 05:22:10;;;;;;;7.22;3.63;;;;;;;;;;4985869;28;20104;-70
2021/08/14 05:24:36;;;;;;;6.82;2.75;;;;;;;;;;4984965;28;20041;-71
2021/08/14 05:27:02;;;;;;;8.15;3.40;;;;;;;;;;4989729;28;20085;-71
2021/08/14 05:29:28;;;;;;;6.32;3.00;;;;;;;;;;4986785;28;20501;-71
2021/08/14 05:31:54;;;;;;;5.18;3.28;;;;;;;;;;4985214;28;20066;-71
2021/08/14 05:34:19;;;;;;;6.63;2.83;;;;;;;;;;4986924;28;20027;-71
2021/08/14 05:36:45;;;;;;;11.27;2.90;;;;;;;;;;4983316;28;20030;-71
2021/08/14 05:39:11;;;;;;;6.78;2.88;;;;;;;;;;4981997;28;20030;-71
2021/08/14 05:41:40;;;;;;;8.95;2.88;;;;;;;;;;4980117;28;20030;-70
2021/08/14 05:44:07;;;;;;;8.25;3.30;;;;;;;;;;4986376;28;20037;-71
2021/08/14 05:46:33;;;;;;;10.52;3.30;;;;;;;;;;4990204;28;20025;-71
2021/08/14 05:48:58;;;;;;;9.13;3.35;;;;;;;;;;4987137;28;20385;-71
2021/08/14 05:51:25;;;;;;;6.18;3.28;;;;;;;;;;5000048;28;20034;-70
2021/08/14 05:53:51;;;;;;;7.18;3.10;;;;;;;;;;4989524;28;20034;-71
2021/08/14 05:56:17;;;;;;;6.60;2.88;;;;;;;;;;4988127;28;20496;-70
2021/08/14 05:58:43;;;;;;;11.05;3.08;;;;;;;;;;4988798;28;20085;-71
2021/08/14 06:01:09;;;;;;;8.80;2.80;;;;;;;;;;4985491;28;20125;-71
2021/08/14 06:03:35;;;;;;;11.63;3.10;;;;;;;;;;4990821;28;20034;-71
2021/08/14 06:06:01;;;;;;;12.15;3.38;;;;;;;;;;4990151;28;20038;-71
2021/08/14 06:08:27;;;;;;;7.53;3.17;;;;;;;;;;4988845;28;20046;-71
2021/08/14 06:10:53;;;;;;;11.40;3.50;;;;;;;;;;4981825;28;20417;-71
2021/08/14 06:13:19;;;;;;;10.75;3.10;;;;;;;;;;4982684;28;20116;-72
2021/08/14 06:15:45;;;;;;;4.57;2.67;;;;;;;;;;4991004;28;20500;-72
2021/08/14 06:18:11;;;;;;;11.75;2.70;;;;;;;;;;4988884;28;20193;-69
2021/08/14 06:20:37;;;;;;;5.85;3.03;;;;;;;;;;4981714;28;20405;-70
2021/08/14 06:23:03;;;;;;;9.98;3.17;;;;;;;;;;4987344;28;20469;-72
2021/08/14 06:25:29;;;;;;;5.63;3.15;;;;;;;;;;4981648;28;20058;-70
2021/08/14 06:27:55;;;;;;;9.73;2.88;;;;;;;;;;4983244;28;20033;-72
2021/08/14 06:30:21;;;;;;;17.65;3.15;;;;;;;;;;4990355;28;20054;-72
2021/08/14 06:32:47;;;;;;;9.77;3.35;;;;;;;;;;4986623;28;20463;-72
2021/08/14 06:35:13;;;;;;;9.45;3.72;;;;;;;;;;4992847;28;20049;-72
2021/08/14 06:37:43;;;;;;;11.95;2.70;;;;;;;;;;4985562;28;20022;-72
2021/08/14 06:40:10;;;;;;;9.13;3.10;;;;;;;;;;4989360;28;20036;-71
2021/08/14 06:42:44;;;;;;;6.88;3.13;;;;;;;;;;4985638;28;20035;-72
2021/08/14 06:45:10;;;;;;;10.73;3.45;;;;;;;;;;4988213;28;20018;-73
2021/08/14 06:47:36;;;;;;;9.68;3.50;;;;;;;;;;4983961;28;20435;-73
2021/08/14 06:50:01;;;;;;;11.20;3.33;;;;;;;;;;4986943;28;20076;-72
2021/08/14 06:52:27;;;;;;;8.18;3.47;;;;;;;;;;4992428;28;20034;-72
2021/08/14 06:54:53;;;;;;;9.50;3.55;;;;;;;;;;4986167;28;20069;-72
2021/08/14 06:57:19;;;;;;;8.48;3.95;;;;;;;;;;4977588;28;20035;-72
2021/08/14 06:59:45;;;;;;;10.20;3.65;;;;;;;;;;4993383;28;20046;-71
2021/08/14 07:02:11;;;;;;;8.38;3.55;;;;;;;;;;4983787;28;20034;-72
2021/08/14 07:04:37;;;;;;;7.35;3.63;;;;;;;;;;4981794;28;20503;-72
2021/08/14 07:07:03;;;;;;;5.85;3.65;;;;;;;;;;4985027;28;20041;-72
2021/08/14 07:09:29;;;;;;;8.45;3.45;;;;;;;;;;4985084;28;20498;-72
2021/08/14 07:11:55;;;;;;;9.82;3.40;;;;;;;;;;4985779;28;20101;-72
2021/08/14 07:14:21;;;;;;;7.68;3.28;;;;;;;;;;4980542;28;20492;-72
2021/08/14 07:16:46;;;;;;;6.93;3.47;;;;;;;;;;4986456;28;20085;-72
2021/08/14 07:19:15;;;;;;;7.88;3.38;;;;;;;;;;4983007;28;20077;-72
2021/08/14 07:21:41;;;;;;;7.65;3.15;;;;;;;;;;4982626;28;20092;-72
2021/08/14 07:24:07;;;;;;;6.82;3.22;;;;;;;;;;4989991;28;20046;-72
2021/08/14 07:26:33;;;;;;;7.05;3.20;;;;;;;;;;4984345;28;20023;-72
2021/08/14 07:28:59;;;;;;;7.28;3.38;;;;;;;;;;4989054;28;20142;-72
2021/08/14 07:31:25;;;;;;;6.22;3.67;;;;;;;;;;4979532;28;20026;-72
2021/08/14 07:33:51;;;;;;;10.75;2.80;;;;;;;;;;4989110;28;20061;-72
2021/08/14 07:36:17;;;;;;;8.38;2.78;;;;;;;;;;4974812;28;20023;-72
2021/08/14 07:38:43;;;;;;;6.05;2.65;;;;;;;;;;4980805;28;20026;-71
2021/08/14 07:41:09;;;;;;;7.68;3.00;;;;;;;;;;4983528;28;20031;-72
2021/08/14 07:43:34;;;;;;;3.97;2.45;;;;;;;;;;4976038;28;20505;-72
2021/08/14 07:46:00;;;;;;;14.25;2.72;;;;;;;;;;4983036;28;20050;-72
2021/08/14 07:48:26;;;;;;;4.63;2.05;;;;;;;;;;4988266;28;20529;-72
2021/08/14 07:50:52;;;;;;;6.60;2.55;;;;;;;;;;4994238;28;20037;-72
2021/08/14 07:53:18;;;;;;;7.80;2.55;;;;;;;;;;4990400;28;20176;-73
2021/08/14 07:55:44;;;;;;;9.10;2.30;;;;;;;;;;4972541;28;20027;-72
2021/08/14 07:58:11;;;;;;;8.98;2.60;;;;;;;;;;4988701;28;20036;-72
2021/08/14 08:00:37;;;;;;;4.78;1.95;;;;;;;;;;4976583;28;20030;-72
2021/08/14 08:03:03;;;;;;;7.63;2.45;;;;;;;;;;4981701;28;20023;-73
2021/08/14 08:05:29;;;;;;;5.47;2.00;;;;;;;;;;4989702;28;20061;-72
2021/08/14 08:07:55;;;;;;;4.53;2.13;;;;;;;;;;4978418;28;20101;-71
2021/08/14 08:10:22;;;;;;;8.65;2.03;;;;;;;;;;4979263;28;20049;-72
2021/08/14 08:12:49;;;;;;;7.68;2.50;;;;;;;;;;4978109;28;20403;-72
2021/08/14 08:15:15;;;;;;;5.00;2.40;;;;;;;;;;4977800;28;20036;-72
2021/08/14 08:17:42;;;;;;;4.75;2.35;;;;;;;;;;4979623;28;20053;-72
2021/08/14 08:20:08;;;;;;;7.22;2.50;;;;;;;;;;4975932;28;20553;-71
2021/08/14 08:22:37;;;;;;;32.03;19.10;;;;;;;;;;4983045;28;20022;-76
2021/08/14 08:25:04;;;;;;;126.63;54.20;;;;;;;;;;4986215;28;20037;-73
2021/08/14 08:27:30;;;;;;;42.22;20.45;;;;;;;;;;4984807;28;20503;-72
2021/08/14 08:30:00;;;;;;;10.75;4.03;;;;;;;;;;4985450;28;20022;-72
2021/08/14 08:32:26;;;;;;;10.60;2.97;;;;;;;;;;4987489;28;20106;-73
2021/08/14 08:34:52;;;;;;;6.55;2.40;;;;;;;;;;4983890;28;20117;-72
2021/08/14 08:37:18;;;;;;;8.48;3.17;;;;;;;;;;4989789;28;20034;-72
2021/08/14 08:39:44;;;;;;;7.10;2.78;;;;;;;;;;4982688;28;20493;-73
2021/08/14 08:42:10;;;;;;;4.35;2.53;;;;;;;;;;4984329;28;20084;-74
2021/08/14 08:44:36;;;;;;;6.68;2.80;;;;;;;;;;4987941;28;20022;-73
2021/08/14 08:47:05;;;;;;;6.38;2.50;;;;;;;;;;4982171;28;20531;-72
2021/08/14 08:49:33;;;;;;;8.40;2.30;;;;;;;;;;4985814;28;20022;-74
2021/08/14 08:51:59;;;;;;;8.43;2.97;;;;;;;;;;4987173;28;20022;-73
2021/08/14 08:54:25;;;;;;;7.88;2.80;;;;;;;;;;4995020;28;20115;-73
2021/08/14 08:56:54;;;;;;;8.80;2.28;;;;;;;;;;4988510;28;20031;-74
2021/08/14 08:59:20;;;;;;;8.45;2.95;;;;;;;;;;4985831;28;20029;-71
2021/08/14 09:01:46;;;;;;;8.90;2.78;;;;;;;;;;4985028;28;20030;-75
2021/08/14 09:04:31;;;;;;;7.25;2.53;;;;;;;;;;4984249;28;20032;-73
2021/08/14 09:06:58;;;;;;;10.70;2.17;;;;;;;;;;4984482;28;20481;-75
2021/08/14 09:09:25;;;;;;;5.32;2.42;;;;;;;;;;4987866;28;20034;-74
2021/08/14 09:11:52;;;;;;;6.45;1.95;;;;;;;;;;4986803;28;20032;-73
2021/08/14 09:14:18;;;;;;;3.83;2.42;;;;;;;;;;4982798;28;20300;-74
2021/08/14 09:16:47;;;;;;;7.43;1.92;;;;;;;;;;4983954;28;22068;-74
2021/08/14 09:19:23;;;;;;;6.80;2.20;;;;;;;;;;4984655;28;20034;-76
2021/08/14 09:21:49;;;;;;;3.60;2.20;;;;;;;;;;4979947;28;20295;-74
2021/08/14 09:24:38;;;;;;;4.68;2.25;;;;;;;;;;4985388;28;20112;-73
2021/08/14 09:27:05;;;;;;;4.22;2.00;;;;;;;;;;4982791;28;20026;-74
2021/08/14 09:29:35;;;;;;;4.65;2.35;;;;;;;;;;4985149;28;20045;-74
2021/08/14 09:32:02;;;;;;;8.60;2.22;;;;;;;;;;4976189;28;20101;-73
2021/08/14 09:34:28;;;;;;;6.30;2.17;;;;;;;;;;4975034;28;20505;-75
2021/08/14 09:37:04;;;;;;;5.68;2.08;;;;;;;;;;4980495;28;20031;-74
2021/08/14 09:39:30;;;;;;;4.35;2.22;;;;;;;;;;4984397;28;20428;-74
2021/08/14 09:42:02;;;;;;;4.70;2.28;;;;;;;;;;4985882;28;20026;-74
2021/08/14 09:44:28;;;;;;;7.88;2.03;;;;;;;;;;4981343;28;20104;-74
2021/08/14 09:46:54;;;;;;;4.15;2.00;;;;;;;;;;4985632;28;20510;-79
2021/08/14 09:49:20;;;;;;;15.32;2.70;;;;;;;;;;4983920;28;20612;-74
2021/08/14 09:51:46;;;;;;;6.80;1.88;;;;;;;;;;4987158;28;20423;-74
2021/08/14 09:54:12;;;;;;;5.10;2.05;;;;;;;;;;4978292;28;20053;-74
2021/08/14 09:56:38;;;;;;;4.55;2.00;;;;;;;;;;4983379;28;20439;-73
2021/08/14 09:59:04;;;;;;;3.58;2.08;;;;;;;;;;4984616;28;20030;-75
2021/08/14 10:01:32;;;;;;;17.35;2.25;;;;;;;;;;4984703;28;20066;-74
2021/08/14 10:03:59;;;;;;;7.05;2.30;;;;;;;;;;4974147;28;20524;-74
2021/08/14 10:06:25;;;;;;;5.15;2.05;;;;;;;;;;4985179;28;20022;-75
2021/08/14 10:08:51;;;;;;;4.90;2.33;;;;;;;;;;4981039;28;20027;-75
2021/08/14 10:11:18;;;;;;;6.22;2.25;;;;;;;;;;4982649;28;20627;-73
2021/08/14 10:13:47;;;;;;;4.68;2.47;;;;;;;;;;4983510;28;20033;-76
2021/08/14 10:16:13;;;;;;;9.77;2.15;;;;;;;;;;4982274;28;20026;-74
2021/08/14 10:18:40;;;;;;;7.05;2.30;;;;;;;;;;4987603;28;20478;-74
2021/08/14 10:21:06;;;;;;;5.85;2.25;;;;;;;;;;4986871;28;20097;-74
2021/08/14 10:23:32;;;;;;;8.50;1.95;;;;;;;;;;4983119;28;20042;-75
2021/08/14 10:26:00;;;;;;;6.32;2.28;;;;;;;;;;4996111;28;20180;-74
2021/08/14 10:28:42;;;;;;;4.03;1.60;;;;;;;;;;4995530;28;20485;-73
2021/08/14 10:31:08;;;;;;;3.55;1.95;;;;;;;;;;4997388;28;20030;-73
2021/08/14 10:33:35;;;;;;;4.20;2.05;;;;;;;;;;4997478;28;20046;-73
2021/08/14 10:36:16;;;;;;;6.13;2.35;;;;;;;;;;4996756;28;20030;-72
2021/08/14 10:38:43;;;;;;;3.88;1.73;;;;;;;;;;4997650;28;20033;-76
2021/08/14 10:41:12;;;;;;;4.20;1.98;;;;;;;;;;4995871;28;20061;-74
2021/08/14 10:43:54;;;;;;;6.35;2.00;;;;;;;;;;4998719;28;20466;-74
2021/08/14 10:46:19;;;;;;;;;;;;;;;;;;4994331;28;20534;-73
2021/08/14 10:49:04;;;;;;;7.10;2.45;;;;;;;;;;4989569;28;20050;-73
2021/08/14 10:51:54;;;;;;;5.43;1.92;;;;;;;;;;4998747;28;20054;-74
2021/08/14 10:54:29;;;;;;;7.57;2.53;;;;;;;;;;4995983;28;20025;-72
2021/08/14 10:57:00;;;;;;;4.13;1.80;;;;;;;;;;4997610;28;20037;-74
2021/08/14 10:59:38;;;;;;;6.78;2.50;;;;;;;;;;4997264;28;20072;-73
2021/08/14 11:02:07;;;;;;;2.85;2.17;;;;;;;;;;4993936;28;20030;-69
2021/08/14 11:04:34;;;;;;;4.28;2.30;;;;;;;;;;4995672;28;20025;-72
2021/08/14 11:07:18;;;;;;;5.75;2.03;;;;;;;;;;4994478;28;20033;-71
2021/08/14 11:09:49;;;;;;;4.22;1.80;;;;;;;;;;4996701;28;20061;-71
2021/08/14 11:12:33;;;;;;;7.53;1.67;;;;;;;;;;4988964;28;20508;-71
2021/08/14 11:15:16;;;;;;;5.18;2.20;;;;;;;;;;4994194;28;20113;-72
2021/08/14 11:17:43;;;;;;;4.25;2.35;;;;;;;;;;4997466;28;20030;-71
2021/08/14 11:20:30;;;;;;;4.80;2.20;;;;;;;;;;4996800;28;20041;-71
2021/08/14 11:22:57;;;;;;;3.30;2.13;;;;;;;;;;4979525;28;20117;-71
2021/08/14 11:25:24;;;;;;;4.65;2.42;;;;;;;;;;4997592;28;20026;-72
2021/08/14 11:28:04;;;;;;;3.88;2.20;;;;;;;;;;4993945;28;20030;-71
2021/08/14 11:30:50;;;;;;;4.97;1.92;;;;;;;;;;4996067;28;20038;-71
2021/08/14 11:33:16;;;;;;;3.85;1.88;;;;;;;;;;4994306;28;20116;-73
2021/08/14 11:35:42;;;;;;;5.07;2.03;;;;;;;;;;4996191;28;20118;-73
2021/08/14 11:38:09;;;;;;;2.63;1.80;;;;;;;;;;4994296;28;20034;-73
2021/08/14 11:40:45;;;;;;;4.38;2.10;;;;;;;;;;4987230;28;20731;-72
2021/08/14 11:43:14;;;;;;;4.90;1.95;;;;;;;;;;4994793;28;20037;-72
2021/08/14 11:45:42;;;;;;;4.18;1.90;;;;;;;;;;4996747;28;20019;-72
2021/08/14 11:48:09;;;;;;;8.27;2.20;;;;;;;;;;4986986;28;20133;-72
2021/08/14 11:50:36;;;;;;;3.25;2.08;;;;;;;;;;4995925;28;20385;-71
2021/08/14 11:53:03;;;;;;;7.70;2.33;;;;;;;;;;4988177;28;20041;-72
2021/08/14 11:55:39;;;;;;;5.90;2.20;;;;;;;;;;4990898;28;20026;-72
2021/08/14 11:58:06;;;;;;;3.85;2.00;;;;;;;;;;4997211;28;20030;-72
2021/08/14 12:00:36;;;;;;;4.00;2.15;;;;;;;;;;4995254;28;20481;-72
2021/08/14 12:03:10;;;;;;;4.47;2.28;;;;;;;;;;4996219;28;20034;-72
2021/08/14 12:05:37;;;;;;;4.95;2.10;;;;;;;;;;4995836;28;20037;-72
2021/08/14 12:08:03;;;;;;;6.25;2.30;;;;;;;;;;4993579;28;20495;-72
2021/08/14 12:10:29;;;;;;;3.40;2.00;;;;;;;;;;4993704;28;20034;-72
2021/08/14 12:12:59;;;;;;;3.25;1.63;;;;;;;;;;4993678;28;20495;-71
2021/08/14 12:15:34;;;;;;;8.40;2.92;;;;;;;;;;4993615;28;20027;-71
2021/08/14 12:18:00;;;;;;;6.70;1.90;;;;;;;;;;4988159;28;20493;-71
2021/08/14 12:20:36;;;;;;;4.18;2.00;;;;;;;;;;4996472;28;20041;-71
2021/08/14 12:23:22;;;;;;;4.95;2.20;;;;;;;;;;4994356;28;20041;-71
2021/08/14 12:25:49;;;;;;;3.47;1.70;;;;;;;;;;4996719;28;20034;-72
2021/08/14 12:28:16;;;;;;;4.97;2.40;;;;;;;;;;4993818;28;20046;-72
2021/08/14 12:30:43;;;;;;;5.05;1.90;;;;;;;;;;4986068;28;20030;-72
2021/08/14 12:33:25;;;;;;;4.32;2.55;;;;;;;;;;4994754;28;20085;-72
2021/08/14 12:36:01;;;;;;;3.88;1.83;;;;;;;;;;4987947;28;20112;-72
2021/08/14 12:38:31;;;;;;;4.45;2.20;;;;;;;;;;4988652;28;20030;-71
2021/08/14 12:40:58;;;;;;;6.45;2.45;;;;;;;;;;4991059;28;20519;-72
2021/08/14 12:43:24;;;;;;;3.80;2.17;;;;;;;;;;4994099;28;20061;-72
2021/08/14 12:45:51;;;;;;;6.78;2.53;;;;;;;;;;4989386;28;20037;-71
2021/08/14 12:48:17;;;;;;;4.82;2.30;;;;;;;;;;4990174;28;20023;-72
2021/08/14 12:50:43;;;;;;;3.15;2.22;;;;;;;;;;4995159;28;20026;-71
2021/08/14 12:53:11;;;;;;;5.22;2.30;;;;;;;;;;4990442;28;20116;-71
2021/08/14 12:55:37;;;;;;;3.95;2.38;;;;;;;;;;4992893;28;20029;-73
2021/08/14 12:58:04;;;;;;;2.53;2.05;;;;;;;;;;4994471;28;20030;-74
2021/08/14 13:00:30;;;;;;;3.80;2.22;;;;;;;;;;4992141;28;20022;-72
2021/08/14 13:02:56;;;;;;;4.57;2.20;;;;;;;;;;4990866;28;20655;-73
2021/08/14 13:05:25;;;;;;;5.43;2.33;;;;;;;;;;4991395;28;20023;-72
2021/08/14 13:07:51;;;;;;;9.05;2.90;;;;;;;;;;4989869;28;20031;-72
2021/08/14 13:10:18;;;;;;;3.85;2.35;;;;;;;;;;4988701;28;20053;-75
2021/08/14 13:13:02;;;;;;;12.88;2.53;;;;;;;;;;4994918;28;20029;-71
2021/08/14 13:15:29;;;;;;;5.07;2.47;;;;;;;;;;4993396;28;20022;-71
2021/08/14 13:17:56;;;;;;;4.65;2.30;;;;;;;;;;4995518;28;20018;-72
2021/08/14 13:20:23;;;;;;;5.80;2.75;;;;;;;;;;4983764;28;20413;-73
2021/08/14 13:22:54;;;;;;;6.40;2.40;;;;;;;;;;4994183;28;20434;-72
2021/08/14 13:25:24;;;;;;;5.65;2.45;;;;;;;;;;4987893;28;20041;-72
2021/08/14 13:27:50;;;;;;;4.70;2.53;;;;;;;;;;4995054;28;20029;-75
2021/08/14 13:30:24;;;;;;;3.35;2.40;;;;;;;;;;4993862;28;20031;-74
2021/08/14 13:32:51;;;;;;;6.97;2.97;;;;;;;;;;4991284;28;20018;-72
2021/08/14 13:35:17;;;;;;;5.72;2.95;;;;;;;;;;4993100;28;20033;-74
2021/08/14 13:37:43;;;;;;;8.02;2.42;;;;;;;;;;4995343;28;20080;-72
2021/08/14 13:40:13;;;;;;;11.10;2.67;;;;;;;;;;4993703;28;20030;-73
2021/08/14 13:42:39;;;;;;;5.13;2.83;;;;;;;;;;4993177;28;20030;-74
2021/08/14 13:45:06;;;;;;;5.18;2.60;;;;;;;;;;4992147;28;20222;-73
2021/08/14 13:47:32;;;;;;;5.28;2.72;;;;;;;;;;4994548;28;20029;-75
2021/08/14 13:49:58;;;;;;;5.00;2.50;;;;;;;;;;4995083;28;20035;-74
2021/08/14 13:52:24;;;;;;;6.32;2.67;;;;;;;;;;4996973;28;20137;-73
2021/08/14 13:54:50;;;;;;;6.55;3.13;;;;;;;;;;4986798;28;20238;-73
2021/08/14 13:57:16;;;;;;;6.45;2.47;;;;;;;;;;4981529;28;20129;-75
2021/08/14 13:59:42;;;;;;;8.20;3.33;;;;;;;;;;4985833;28;20608;-75
2021/08/14 14:02:11;;;;;;;4.78;2.80;;;;;;;;;;4988166;28;20030;-74
2021/08/14 14:04:37;;;;;;;4.63;2.60;;;;;;;;;;4981419;28;20030;-76
2021/08/14 14:07:03;;;;;;;6.65;2.60;;;;;;;;;;4978368;28;20019;-76
2021/08/14 14:09:29;;;;;;;10.43;3.13;;;;;;;;;;4983922;28;20413;-75
2021/08/14 14:11:58;;;;;;;4.03;2.70;;;;;;;;;;4984771;28;20478;-74
2021/08/14 14:14:25;;;;;;;3.80;2.80;;;;;;;;;;4984168;28;20026;-74
2021/08/14 14:16:51;;;;;;;6.05;2.58;;;;;;;;;;4980887;28;20289;-75
2021/08/14 14:19:17;;;;;;;5.55;3.08;;;;;;;;;;4982731;28;20038;-74
2021/08/14 14:21:43;;;;;;;7.18;3.17;;;;;;;;;;4982352;28;20038;-75
2021/08/14 14:24:09;;;;;;;5.10;2.90;;;;;;;;;;4984617;28;20085;-74
2021/08/14 14:26:35;;;;;;;4.07;2.70;;;;;;;;;;4979064;28;20409;-74
2021/08/14 14:29:00;;;;;;;3.25;2.10;;;;;;;;;;4984334;28;20080;-75
2021/08/14 14:31:26;;;;;;;4.55;2.88;;;;;;;;;;4981488;28;20030;-75
2021/08/14 14:33:53;;;;;;;6.18;2.67;;;;;;;;;;4982402;28;20042;-74
2021/08/14 14:36:19;;;;;;;6.80;3.17;;;;;;;;;;4982638;28;20085;-74
2021/08/14 14:38:45;;;;;;;6.63;3.13;;;;;;;;;;4979944;28;20018;-74
2021/08/14 14:41:11;;;;;;;5.07;3.17;;;;;;;;;;4975516;28;20395;-74